createdAt,value
2018-12-24T00:01:14.515Z,100.00
2018-12-24T00:04:17.953Z,100.00
2018-12-24T00:07:21.333Z,100.00
2018-12-24T00:10:24.721Z,100.00
2018-12-24T00:13:28.162Z,100.00
2018-12-24T00:16:31.529Z,100.00
2018-12-24T00:19:35.396Z,100.00
2018-12-24T00:22:38.519Z,100.00
2018-12-24T00:25:42.057Z,100.00
2018-12-24T00:28:45.532Z,100.00
2018-12-24T00:31:49.125Z,100.00
2018-12-24T00:34:52.739Z,100.00
2018-12-24T00:37:56.274Z,100.00
2018-12-24T00:40:59.766Z,100.00
2018-12-24T00:44:03.349Z,100.00
2018-12-24T00:47:06.832Z,100.00
2018-12-24T00:50:10.331Z,100.00
2018-12-24T00:53:13.853Z,100.00
2018-12-24T00:56:20.012Z,100.00
2018-12-24T00:59:24.149Z,100.00
2018-12-24T01:02:28.753Z,100.00
2018-12-24T01:05:32.439Z,100.00
2018-12-24T01:08:35.901Z,100.00
2018-12-24T01:11:39.508Z,94.78
2018-12-24T01:14:42.964Z,100.00
2018-12-24T01:17:46.378Z,100.00
2018-12-24T01:20:49.944Z,100.00
2018-12-24T01:23:53.473Z,100.00
2018-12-24T01:26:57.076Z,100.00
2018-12-24T01:30:00.501Z,100.00
2018-12-24T01:33:04.104Z,100.00
2018-12-24T01:36:07.698Z,100.00
2018-12-24T01:39:11.327Z,100.00
2018-12-24T01:42:14.811Z,100.00
2018-12-24T01:45:18.418Z,100.00
2018-12-24T01:48:22.008Z,100.00
2018-12-24T01:51:25.617Z,100.00
2018-12-24T01:54:29.239Z,100.00
2018-12-24T01:57:32.724Z,100.00
2018-12-24T02:00:36.329Z,100.00
2018-12-24T02:03:39.939Z,100.00
2018-12-24T02:06:43.473Z,100.00
2018-12-24T02:09:47.039Z,100.00
2018-12-24T02:12:50.534Z,100.00
2018-12-24T02:15:54.084Z,100.00
2018-12-24T02:18:57.638Z,100.00
2018-12-24T02:22:01.037Z,100.00
2018-12-24T02:25:04.527Z,100.00
2018-12-24T02:28:07.961Z,100.00
2018-12-24T02:31:11.444Z,100.00
2018-12-24T02:34:15.099Z,100.00
2018-12-24T02:37:18.653Z,100.00
2018-12-24T02:40:21.978Z,100.00
2018-12-24T02:43:26.564Z,100.00
2018-12-24T02:46:30.089Z,100.00
2018-12-24T02:49:33.641Z,100.00
2018-12-24T02:52:37.220Z,100.00
2018-12-24T02:55:40.810Z,100.00
2018-12-24T02:58:44.215Z,100.00
2018-12-24T03:01:47.727Z,100.00
2018-12-24T03:04:51.258Z,100.00
2018-12-24T03:07:54.691Z,100.00
2018-12-24T03:10:58.224Z,100.00
2018-12-24T03:14:01.724Z,100.00
2018-12-24T03:17:05.119Z,100.00
2018-12-24T03:20:08.609Z,100.00
2018-12-24T03:23:12.108Z,100.00
2018-12-24T03:26:15.679Z,100.00
2018-12-24T03:29:19.236Z,100.00
2018-12-24T03:32:22.785Z,100.00
2018-12-24T03:35:26.317Z,100.00
2018-12-24T03:38:29.949Z,100.00
2018-12-24T03:41:33.488Z,100.00
2018-12-24T03:44:37.061Z,100.00
2018-12-24T03:47:40.550Z,100.00
2018-12-24T03:50:43.978Z,100.00
2018-12-24T03:53:47.455Z,100.00
2018-12-24T03:56:50.882Z,100.00
2018-12-24T03:59:54.388Z,100.00
2018-12-24T04:02:57.750Z,100.00
2018-12-24T04:06:01.360Z,100.00
2018-12-24T04:09:06.024Z,100.00
2018-12-24T04:12:09.364Z,100.00
2018-12-24T04:15:12.777Z,100.00
2018-12-24T04:18:16.357Z,100.00
2018-12-24T04:21:19.928Z,100.00
2018-12-24T04:24:23.445Z,100.00
2018-12-24T04:27:26.937Z,100.00
2018-12-24T04:30:30.543Z,100.00
2018-12-24T04:33:34.018Z,100.00
2018-12-24T04:36:37.651Z,100.00
2018-12-24T04:39:41.225Z,100.00
2018-12-24T04:42:44.616Z,100.00
2018-12-24T04:45:48.123Z,100.00
2018-12-24T04:48:51.482Z,100.00
2018-12-24T04:51:55.043Z,100.00
2018-12-24T04:54:58.400Z,100.00
2018-12-24T04:58:02.719Z,98.58
2018-12-24T05:01:06.155Z,98.20
2018-12-24T05:04:09.514Z,98.04
2018-12-24T05:07:12.935Z,98.57
2018-12-24T05:10:16.441Z,99.03
2018-12-24T05:13:19.812Z,98.70
2018-12-24T05:16:23.330Z,97.88
2018-12-24T05:19:26.833Z,99.69
2018-12-24T05:22:30.351Z,100.00
2018-12-24T05:25:33.861Z,100.00
2018-12-24T05:28:37.240Z,100.00
2018-12-24T05:31:40.757Z,100.00
2018-12-24T05:34:44.260Z,100.00
2018-12-24T05:37:47.970Z,99.63
2018-12-24T05:40:51.470Z,100.00
2018-12-24T05:43:54.953Z,100.00
2018-12-24T05:46:58.470Z,96.88
2018-12-24T05:50:01.879Z,99.40
2018-12-24T05:53:05.278Z,99.27
2018-12-24T05:56:08.673Z,98.77
2018-12-24T05:59:12.153Z,98.62
2018-12-24T06:02:15.653Z,99.88
2018-12-24T06:05:19.085Z,98.76
2018-12-24T06:08:22.792Z,99.32
2018-12-24T06:11:26.178Z,99.14
2018-12-24T06:14:29.676Z,98.67
2018-12-24T06:17:33.192Z,98.57
2018-12-24T06:20:37.781Z,97.73
2018-12-24T06:23:40.178Z,97.27
2018-12-24T06:26:43.686Z,97.77
2018-12-24T06:29:47.305Z,98.01
2018-12-24T06:32:50.891Z,97.93
2018-12-24T06:35:54.486Z,96.76
2018-12-24T06:38:58.139Z,97.47
2018-12-24T06:42:01.697Z,96.71
2018-12-24T06:45:05.349Z,96.10
2018-12-24T06:48:08.791Z,96.00
2018-12-24T06:51:12.301Z,96.51
2018-12-24T06:54:15.711Z,96.75
2018-12-24T06:57:19.244Z,96.07
2018-12-24T07:00:22.741Z,95.89
2018-12-24T07:03:26.323Z,96.36
2018-12-24T07:06:29.832Z,97.02
2018-12-24T07:09:33.432Z,97.80
2018-12-24T07:12:37.045Z,97.26
2018-12-24T07:15:40.689Z,98.16
2018-12-24T07:18:44.171Z,98.64
2018-12-24T07:21:47.758Z,98.18
2018-12-24T07:24:51.385Z,97.75
2018-12-24T07:27:54.969Z,98.39
2018-12-24T07:30:58.468Z,97.69
2018-12-24T07:34:02.075Z,97.69
2018-12-24T07:37:05.674Z,97.68
2018-12-24T07:40:09.219Z,99.04
2018-12-24T07:43:12.786Z,99.19
2018-12-24T07:46:16.287Z,100.00
2018-12-24T07:49:19.839Z,99.82
2018-12-24T07:52:23.393Z,99.49
2018-12-24T07:55:27.007Z,98.77
2018-12-24T07:58:30.643Z,98.54
2018-12-24T08:01:34.176Z,97.35
2018-12-24T08:04:37.713Z,97.04
2018-12-24T08:07:41.314Z,96.77
2018-12-24T08:10:44.932Z,96.81
2018-12-24T08:13:48.417Z,96.93
2018-12-24T08:16:52.020Z,95.52
2018-12-24T08:19:55.670Z,94.40
2018-12-24T08:22:59.147Z,94.87
2018-12-24T08:26:02.624Z,95.04
2018-12-24T08:29:06.152Z,93.05
2018-12-24T08:32:11.521Z,93.87
2018-12-24T08:35:13.361Z,95.26
2018-12-24T08:38:17.134Z,96.23
2018-12-24T08:41:20.639Z,96.53
2018-12-24T08:44:24.207Z,95.42
2018-12-24T08:47:27.756Z,95.32
2018-12-24T08:50:31.199Z,94.73
2018-12-24T08:53:34.767Z,95.28
2018-12-24T08:56:38.155Z,93.56
2018-12-24T08:59:41.722Z,92.81
2018-12-24T09:02:45.318Z,92.30
2018-12-24T09:05:48.859Z,91.94
2018-12-24T09:08:52.362Z,93.12
2018-12-24T09:11:56.013Z,92.43
2018-12-24T09:14:59.613Z,92.95
2018-12-24T09:18:03.182Z,93.16
2018-12-24T09:21:06.723Z,93.91
2018-12-24T09:24:10.126Z,94.32
2018-12-24T09:27:13.598Z,94.29
2018-12-24T09:30:19.366Z,94.01
2018-12-24T09:33:22.846Z,91.71
2018-12-24T09:36:26.271Z,92.68
2018-12-24T09:39:30.004Z,91.93
2018-12-24T09:42:33.497Z,93.64
2018-12-24T09:45:36.968Z,90.80
2018-12-24T09:48:40.513Z,88.99
2018-12-24T09:51:44.004Z,88.86
2018-12-24T09:54:47.556Z,87.79
2018-12-24T09:57:51.122Z,89.06
2018-12-24T10:00:54.768Z,87.58
2018-12-24T10:04:03.011Z,86.70
2018-12-24T10:07:19.945Z,86.13
2018-12-24T10:10:23.732Z,85.98
2018-12-24T10:13:28.599Z,84.14
2018-12-24T10:16:31.982Z,83.18
2018-12-24T10:19:35.611Z,83.29
2018-12-24T10:22:39.057Z,81.86
2018-12-24T10:25:42.579Z,82.22
2018-12-24T10:28:46.050Z,82.46
2018-12-24T10:31:49.598Z,83.07
2018-12-24T10:34:54.081Z,81.94
2018-12-24T10:37:57.601Z,82.34
2018-12-24T10:41:05.320Z,82.13
2018-12-24T10:44:08.782Z,82.50
2018-12-24T10:47:12.335Z,80.97
2018-12-24T10:50:15.712Z,81.14
2018-12-24T10:53:19.284Z,80.96
2018-12-24T10:56:22.812Z,81.72
2018-12-24T10:59:26.242Z,78.64
2018-12-24T11:02:29.905Z,80.29
2018-12-24T11:05:33.432Z,78.92
2018-12-24T11:08:36.914Z,80.56
2018-12-24T11:11:40.328Z,80.48
2018-12-24T11:14:43.851Z,79.90
2018-12-24T11:17:47.339Z,80.45
2018-12-24T11:20:50.847Z,78.01
2018-12-24T11:23:54.332Z,77.49
2018-12-24T11:26:57.835Z,77.73
2018-12-24T11:30:02.259Z,78.73
2018-12-24T11:33:05.881Z,79.50
2018-12-24T11:36:09.403Z,79.52
2018-12-24T11:39:13.231Z,79.55
2018-12-24T11:42:16.710Z,78.88
2018-12-24T11:45:20.323Z,79.30
2018-12-24T11:48:23.801Z,80.34
2018-12-24T11:51:27.436Z,79.81
2018-12-24T11:54:30.886Z,79.09
2018-12-24T11:57:34.514Z,79.70
2018-12-24T12:00:39.002Z,78.89
2018-12-24T12:03:42.553Z,79.50
2018-12-24T12:06:46.157Z,80.04
2018-12-24T12:09:49.774Z,80.46
2018-12-24T12:12:53.414Z,79.66
2018-12-24T12:15:58.968Z,80.04
2018-12-24T12:19:02.486Z,79.79
2018-12-24T12:22:06.022Z,80.44
2018-12-24T12:25:09.615Z,79.87
2018-12-24T12:28:13.336Z,80.58
2018-12-24T12:31:17.887Z,79.32
2018-12-24T12:34:22.544Z,79.58
2018-12-24T12:37:25.998Z,78.75
2018-12-24T12:40:29.599Z,78.66
2018-12-24T12:43:33.489Z,78.31
2018-12-24T12:46:37.131Z,79.15
2018-12-24T12:49:40.674Z,79.93
2018-12-24T12:52:44.226Z,78.96
2018-12-24T12:55:47.906Z,79.45
2018-12-24T12:58:51.309Z,78.52
2018-12-24T13:01:54.962Z,79.92
2018-12-24T13:04:58.441Z,78.90
2018-12-24T13:08:02.146Z,80.19
2018-12-24T13:11:05.635Z,79.36
2018-12-24T13:14:09.263Z,78.25
2018-12-24T13:17:12.962Z,76.55
2018-12-24T13:20:24.813Z,76.01
2018-12-24T13:23:20.249Z,76.36
2018-12-24T13:26:23.982Z,77.76
2018-12-24T13:29:27.734Z,77.69
2018-12-24T13:32:31.350Z,77.49
2018-12-24T13:35:34.858Z,77.96
2018-12-24T13:38:38.495Z,78.65
2018-12-24T13:41:42.099Z,79.30
2018-12-24T13:44:45.669Z,78.06
2018-12-24T13:47:49.213Z,78.01
2018-12-24T13:50:52.735Z,76.20
2018-12-24T13:53:56.418Z,76.01
2018-12-24T13:57:00.110Z,75.61
2018-12-24T14:00:03.587Z,76.05
2018-12-24T14:03:07.257Z,76.45
2018-12-24T14:06:11.125Z,76.48
2018-12-24T14:09:14.941Z,76.80
2018-12-24T14:12:18.519Z,76.33
2018-12-24T14:15:22.514Z,76.83
2018-12-24T14:18:26.238Z,76.62
2018-12-24T14:21:29.887Z,76.35
2018-12-24T14:24:34.423Z,76.71
2018-12-24T14:27:38.058Z,76.83
2018-12-24T14:30:41.660Z,75.87
2018-12-24T14:33:45.336Z,76.35
2018-12-24T14:36:49.033Z,76.24
2018-12-24T14:39:52.351Z,75.04
2018-12-24T14:42:55.805Z,74.66
2018-12-24T14:45:59.296Z,75.36
2018-12-24T14:49:02.975Z,75.16
2018-12-24T14:52:06.395Z,74.70
2018-12-24T14:55:09.864Z,73.53
2018-12-24T14:58:13.450Z,74.45
2018-12-24T15:01:16.978Z,75.37
2018-12-24T15:04:20.650Z,76.41
2018-12-24T15:07:24.185Z,76.59
2018-12-24T15:10:28.284Z,76.55
2018-12-24T15:13:31.708Z,77.57
2018-12-24T15:16:35.957Z,77.68
2018-12-24T15:19:38.961Z,78.54
2018-12-24T15:22:42.414Z,79.06
2018-12-24T15:25:46.066Z,78.74
2018-12-24T15:28:49.649Z,78.84
2018-12-24T15:31:53.284Z,76.78
2018-12-24T15:34:56.902Z,76.59
2018-12-24T15:38:00.339Z,77.01
2018-12-24T15:41:03.744Z,76.72
2018-12-24T15:44:07.204Z,77.76
2018-12-24T15:47:10.591Z,76.89
2018-12-24T15:50:14.146Z,77.87
2018-12-24T15:53:17.642Z,77.68
2018-12-24T15:56:21.073Z,77.30
2018-12-24T15:59:24.522Z,76.44
2018-12-24T16:02:27.947Z,77.23
2018-12-24T16:05:31.379Z,77.70
2018-12-24T16:08:34.933Z,76.89
2018-12-24T16:11:38.534Z,77.45
2018-12-24T16:14:42.016Z,77.81
2018-12-24T16:17:46.760Z,76.88
2018-12-24T16:20:50.262Z,75.95
2018-12-24T16:23:53.947Z,75.48
2018-12-24T16:26:58.463Z,73.95
2018-12-24T16:30:01.984Z,71.71
2018-12-24T16:33:05.357Z,71.41
2018-12-24T16:36:08.901Z,70.23
2018-12-24T16:39:13.637Z,69.87
2018-12-24T16:42:17.095Z,69.49
2018-12-24T16:45:20.566Z,67.64
2018-12-24T16:48:24.108Z,66.60
2018-12-24T16:51:28.125Z,67.95
2018-12-24T16:54:31.860Z,67.56
2018-12-24T16:57:35.550Z,67.87
2018-12-24T17:00:39.145Z,68.54
2018-12-24T17:03:42.807Z,69.33
2018-12-24T17:06:46.294Z,68.89
2018-12-24T17:09:49.859Z,69.30
2018-12-24T17:12:53.749Z,69.53
2018-12-24T17:15:57.265Z,69.66
2018-12-24T17:19:00.806Z,69.81
2018-12-24T17:22:05.323Z,69.51
2018-12-24T17:25:08.959Z,70.22
2018-12-24T17:28:12.951Z,70.72
2018-12-24T17:31:16.550Z,69.22
2018-12-24T17:34:21.399Z,70.60
2018-12-24T17:37:24.902Z,70.80
2018-12-24T17:40:28.508Z,70.82
2018-12-24T17:43:32.034Z,71.79
2018-12-24T17:46:35.582Z,70.99
2018-12-24T17:49:39.180Z,71.64
2018-12-24T17:52:42.749Z,72.20
2018-12-24T17:55:46.270Z,71.83
2018-12-24T17:58:49.864Z,72.06
2018-12-24T18:01:54.001Z,72.87
2018-12-24T18:04:57.607Z,72.34
2018-12-24T18:08:01.391Z,72.69
2018-12-24T18:11:05.093Z,73.56
2018-12-24T18:14:08.532Z,74.20
2018-12-24T18:17:12.161Z,74.03
2018-12-24T18:20:15.804Z,74.28
2018-12-24T18:23:19.400Z,73.47
2018-12-24T18:26:22.908Z,74.41
2018-12-24T18:29:26.462Z,74.72
2018-12-24T18:32:30.813Z,74.93
2018-12-24T18:35:34.409Z,75.54
2018-12-24T18:38:38.039Z,76.32
2018-12-24T18:41:41.809Z,75.88
2018-12-24T18:44:45.439Z,75.62
2018-12-24T18:47:48.953Z,75.82
2018-12-24T18:50:52.563Z,76.77
2018-12-24T18:53:56.177Z,76.96
2018-12-24T18:56:59.638Z,77.15
2018-12-24T19:00:03.472Z,75.90
2018-12-24T19:03:07.053Z,76.82
2018-12-24T19:06:10.855Z,76.89
2018-12-24T19:09:14.465Z,77.37
2018-12-24T19:12:18.102Z,78.22
2018-12-24T19:15:21.700Z,79.76
2018-12-24T19:18:26.202Z,81.61
2018-12-24T19:21:29.802Z,82.53
2018-12-24T19:24:33.297Z,83.84
2018-12-24T19:27:36.915Z,83.43
2018-12-24T19:30:40.498Z,83.23
2018-12-24T19:33:44.036Z,82.31
2018-12-24T19:36:47.515Z,82.50
2018-12-24T19:39:51.159Z,82.24
2018-12-24T19:42:54.793Z,82.38
2018-12-24T19:45:58.195Z,82.05
2018-12-24T19:49:01.632Z,81.89
2018-12-24T19:52:05.259Z,81.89
2018-12-24T19:55:08.833Z,81.42
2018-12-24T19:58:12.245Z,81.28
2018-12-24T20:01:15.839Z,81.10
2018-12-24T20:04:19.346Z,81.04
2018-12-24T20:07:22.758Z,80.59
2018-12-24T20:10:26.172Z,80.10
2018-12-24T20:13:29.862Z,79.93
2018-12-24T20:16:33.230Z,80.33
2018-12-24T20:19:36.630Z,80.09
2018-12-24T20:22:40.184Z,80.28
2018-12-24T20:25:46.976Z,80.85
2018-12-24T20:28:53.670Z,80.28
2018-12-24T20:31:58.693Z,81.07
2018-12-24T20:35:04.591Z,80.83
2018-12-24T20:38:08.132Z,81.10
2018-12-24T20:41:13.965Z,80.73
2018-12-24T20:44:20.883Z,80.93
2018-12-24T20:47:24.966Z,81.86
2018-12-24T20:50:29.048Z,81.29
2018-12-24T20:53:33.868Z,81.84
2018-12-24T20:56:37.418Z,82.10
2018-12-24T20:59:40.947Z,82.54
2018-12-24T21:02:52.298Z,82.96
2018-12-24T21:05:56.237Z,82.48
2018-12-24T21:08:59.813Z,82.12
2018-12-24T21:12:03.777Z,82.48
2018-12-24T21:15:07.389Z,82.22
2018-12-24T21:18:15.046Z,82.30
2018-12-24T21:21:14.405Z,83.14
2018-12-24T21:24:18.105Z,83.87
2018-12-24T21:27:21.954Z,84.45
2018-12-24T21:30:25.843Z,84.90
2018-12-24T21:33:29.413Z,85.08
2018-12-24T21:36:33.852Z,84.99
2018-12-24T21:39:37.408Z,84.91
2018-12-24T21:42:40.877Z,85.27
2018-12-24T21:45:44.542Z,85.77
2018-12-24T21:48:48.363Z,85.96
2018-12-24T21:52:02.584Z,85.82
2018-12-24T21:55:13.720Z,85.38
2018-12-24T21:58:28.474Z,85.24
2018-12-24T22:01:32.329Z,84.72
2018-12-24T22:04:35.846Z,85.35
2018-12-24T22:07:39.336Z,85.53
2018-12-24T22:10:43.886Z,85.51
2018-12-24T22:13:47.493Z,86.50
2018-12-24T22:16:51.102Z,87.48
2018-12-24T22:19:54.765Z,87.59
2018-12-24T22:22:58.376Z,87.33
2018-12-24T22:26:02.300Z,87.93
2018-12-24T22:29:05.805Z,87.87
2018-12-24T22:32:09.346Z,87.75
2018-12-24T22:35:12.922Z,87.68
2018-12-24T22:38:16.392Z,87.40
2018-12-24T22:41:20.055Z,87.21
2018-12-24T22:44:23.588Z,86.50
2018-12-24T22:47:27.155Z,86.82
2018-12-24T22:50:30.757Z,87.19
2018-12-24T22:53:34.369Z,87.31
2018-12-24T22:56:38.073Z,87.76
2018-12-24T22:59:41.797Z,88.20
2018-12-24T23:02:45.407Z,88.91
2018-12-24T23:05:48.934Z,89.38
2018-12-24T23:08:53.468Z,89.28
2018-12-24T23:11:57.158Z,89.34
2018-12-24T23:15:00.732Z,89.10
2018-12-24T23:18:04.293Z,88.25
2018-12-24T23:21:07.796Z,88.60
2018-12-24T23:24:11.400Z,88.66
2018-12-24T23:27:14.905Z,87.07
2018-12-24T23:30:18.455Z,87.72
2018-12-24T23:33:22.038Z,87.77
2018-12-24T23:36:25.750Z,87.78
2018-12-24T23:39:29.322Z,87.64
2018-12-24T23:42:32.856Z,87.38
2018-12-24T23:45:36.435Z,87.61
2018-12-24T23:48:40.450Z,88.34
2018-12-24T23:51:44.058Z,88.31
2018-12-24T23:54:47.727Z,87.96
2018-12-24T23:57:51.273Z,88.03
